Time;durP1;ratioP1;P1;durP2;ratioP2;P2;SDS_P1;SDS_P2;PMS_P1;PMS_P2;Temp;Humidity;BMP_temperature;BMP_pressure;BME280_temperature;BME280_humidity;BME280_pressure;Samples;Min_cycle;Max_cycle;Signal;HPM_P1;HPM_P2
2022/12/07 00:01:21;;;;;;;;;1.25;1.25;;;;;5.96;79.92;101836.03;5074533;28;11682;-64
2022/12/07 00:03:49;;;;;;;;;2.00;2.00;;;;;5.96;80.09;101838.72;5078473;28;11944;-64
2022/12/07 00:06:17;;;;;;;;;2.00;1.00;;;;;5.94;79.61;101830.81;5060611;28;10952;-64
2022/12/07 00:08:44;;;;;;;;;5.50;5.00;;;;;5.93;80.23;101835.31;5052233;28;10841;-65
2022/12/07 00:11:15;;;;;;;;;1.00;1.00;;;;;5.91;79.55;101826.56;5058968;28;10956;-64
2022/12/07 00:13:42;;;;;;;;;2.00;2.00;;;;;5.88;80.12;101828.69;5067009;28;10973;-63
2022/12/07 00:16:11;;;;;;;;;1.00;1.00;;;;;5.81;79.76;101828.38;5072245;28;10968;-66
2022/12/07 00:18:38;;;;;;;;;0.25;0.00;;;;;5.83;80.26;101825.56;5060550;28;10948;-66
2022/12/07 00:21:26;;;;;;;;;0.75;0.75;;;;;5.85;80.13;101821.78;5074151;28;10952;-65
2022/12/07 00:23:53;;;;;;;;;0.00;0.00;;;;;5.86;79.88;101818.09;5070209;28;10743;-66
2022/12/07 00:26:28;;;;;;;;;0.00;0.00;;;;;5.89;79.50;101817.84;5068209;28;10791;-65
2022/12/07 00:29:03;;;;;;;;;1.75;1.00;;;;;5.91;79.45;101813.22;5067577;28;10804;-65
2022/12/07 00:31:34;;;;;;;;;0.00;0.00;;;;;5.93;79.70;101818.44;5066218;28;10882;-65
2022/12/07 00:34:01;;;;;;;;;0.50;0.50;;;;;5.92;79.22;101809.59;5065068;28;10862;-65
2022/12/07 00:36:28;;;;;;;;;0.00;0.00;;;;;5.91;78.67;101817.69;5084335;28;10860;-65
2022/12/07 00:38:57;;;;;;;;;0.00;0.00;;;;;5.91;78.92;101813.22;5072740;28;10939;-65
2022/12/07 00:41:25;;;;;;;;;1.00;0.00;;;;;5.87;79.40;101802.91;5068249;28;10778;-65
2022/12/07 00:43:52;;;;;;;;;0.25;0.25;;;;;5.87;79.16;101802.91;5076566;28;10863;-64
2022/12/07 00:46:20;;;;;;;;;3.00;0.00;;;;;5.85;78.59;101804.91;5060588;28;11183;-65
2022/12/07 00:48:48;;;;;;;;;0.00;0.00;;;;;5.81;79.20;101798.16;5063070;28;10966;-65
2022/12/07 00:51:16;;;;;;;;;2.00;0.75;;;;;5.81;79.29;101803.50;5068276;28;11010;-65
2022/12/07 00:53:43;;;;;;;;;0.75;0.00;;;;;5.79;79.35;101800.09;5068623;28;10801;-66
2022/12/07 00:56:19;;;;;;;;;0.00;0.00;;;;;5.80;79.07;101797.31;5069356;28;10815;-65
2022/12/07 00:58:59;;;;;;;;;0.00;0.00;;;;;5.81;78.70;101793.66;5069961;28;10762;-65
2022/12/07 01:01:30;;;;;;;;;1.00;0.75;;;;;5.80;79.22;101781.28;5063930;28;10768;-65
2022/12/07 01:03:57;;;;;;;;;0.00;0.00;;;;;5.83;79.42;101793.50;5074958;28;10889;-64
2022/12/07 01:06:25;;;;;;;;;1.00;0.00;;;;;5.83;78.83;101793.50;5069823;28;10968;-65
2022/12/07 01:08:52;;;;;;;;;2.00;0.00;;;;;5.81;78.78;101799.00;5072885;28;11057;-65
2022/12/07 01:11:22;;;;;;;;;0.00;0.00;;;;;5.79;79.31;101800.94;5071708;28;10762;-64
2022/12/07 01:13:53;;;;;;;;;0.00;0.00;;;;;5.78;78.95;101806.44;5082487;28;10797;-65
2022/12/07 01:16:21;;;;;;;;;0.00;0.00;;;;;5.76;78.79;101811.09;5062081;28;10934;-65
2022/12/07 01:18:50;;;;;;;;;0.00;0.00;;;;;5.73;78.89;101817.53;5063767;28;11007;-65
2022/12/07 01:21:21;;;;;;;;;1.00;1.00;;;;;5.64;78.50;101815.72;5077798;28;10864;-65
2022/12/07 01:23:48;;;;;;;;;1.00;1.00;;;;;5.57;78.77;101823.41;5075738;28;10792;-63
2022/12/07 01:26:17;;;;;;;;;1.50;0.00;;;;;5.61;78.96;101821.31;5079418;28;10795;-65
2022/12/07 01:28:44;;;;;;;;;1.00;1.00;;;;;5.67;79.45;101818.06;5075916;28;10770;-65
2022/12/07 01:31:17;;;;;;;;;1.25;0.00;;;;;5.70;79.45;101812.47;5090182;28;10916;-65
2022/12/07 01:33:47;;;;;;;;;0.00;0.00;;;;;5.75;79.08;101807.53;5062227;28;10851;-66
2022/12/07 01:36:19;;;;;;;;;0.25;0.00;;;;;5.82;79.76;101803.34;5087993;28;10788;-65
2022/12/07 01:38:48;;;;;;;;;0.00;0.00;;;;;5.85;79.17;101803.06;5066992;28;10931;-64
2022/12/07 01:41:16;;;;;;;;;1.75;0.75;;;;;5.88;79.35;101800.13;5075441;28;10825;-64
2022/12/07 01:44:18;;;;;;;;;0.00;0.00;;;;;5.91;79.18;101804.31;5091182;28;10856;-65
2022/12/07 01:46:56;;;;;;;;;0.25;0.25;;;;;5.92;78.58;101801.56;5065003;28;10872;-65
2022/12/07 01:49:26;;;;;;;;;1.25;0.75;;;;;5.92;78.79;101804.25;5060410;28;12032;-66
2022/12/07 01:52:01;;;;;;;;;0.00;0.00;;;;;5.90;78.67;101808.00;5065726;28;10906;-66
2022/12/07 01:54:27;;;;;;;;;0.00;0.00;;;;;5.90;78.74;101813.34;5062973;28;10797;-64
2022/12/07 01:56:56;;;;;;;;;2.00;2.00;;;;;5.88;78.94;101810.81;5064563;28;10867;-65
2022/12/07 01:59:26;;;;;;;;;0.00;0.00;;;;;5.86;78.84;101807.41;5064057;28;11600;-64
2022/12/07 02:01:54;;;;;;;;;0.75;0.75;;;;;5.82;78.57;101791.81;5082506;28;10877;-64
2022/12/07 02:04:22;;;;;;;;;0.00;0.00;;;;;5.78;78.94;101791.25;5055938;28;11872;-63
2022/12/07 02:06:50;;;;;;;;;0.00;0.00;;;;;5.76;79.01;101798.56;5069777;28;10933;-64
2022/12/07 02:09:16;;;;;;;;;0.00;0.00;;;;;5.73;78.51;101790.00;5080173;28;10758;-64
2022/12/07 02:11:43;;;;;;;;;1.00;1.00;;;;;5.69;79.04;101789.41;5072844;28;10777;-63
2022/12/07 02:14:09;;;;;;;;;3.50;0.25;;;;;5.67;78.96;101781.56;5067295;28;10867;-63
2022/12/07 02:17:04;;;;;;;;;0.00;0.00;;;;;5.65;78.60;101793.34;5072516;28;11802;-65
2022/12/07 02:19:55;;;;;;;;;0.25;0.25;;;;;5.61;78.86;101798.13;5060518;28;11045;-65
2022/12/07 02:22:52;;;;;;;;;3.25;0.25;;;;;5.57;79.13;101799.38;5066229;28;11499;-64
2022/12/07 02:25:39;;;;;;;;;1.00;0.00;;;;;5.49;79.78;101785.88;5054167;28;10824;-65
2022/12/07 02:28:09;;;;;;;;;1.00;1.00;;;;;5.52;79.50;101782.09;5064848;28;10964;-65
2022/12/07 02:30:42;;;;;;;;;0.00;0.00;;;;;5.53;79.51;101776.59;5082244;28;10914;-65
2022/12/07 02:33:25;;;;;;;;;1.00;0.00;;;;;5.56;79.64;101772.81;5063708;28;10984;-65
2022/12/07 02:36:17;;;;;;;;;2.00;0.00;;;;;5.57;79.52;101775.34;5068966;28;11011;-62
2022/12/07 02:38:54;;;;;;;;;0.00;0.00;;;;;5.57;79.34;101767.34;5063975;28;11046;-64
2022/12/07 02:41:46;;;;;;;;;1.25;0.75;;;;;5.57;79.45;101774.50;5070677;28;11007;-65
2022/12/07 02:44:18;;;;;;;;;0.00;0.00;;;;;5.56;79.29;101767.47;5066830;28;10907;-65
2022/12/07 02:46:52;;;;;;;;;0.00;0.00;;;;;5.55;79.90;101771.97;5056404;28;11072;-65
2022/12/07 02:49:23;;;;;;;;;0.00;0.00;;;;;5.55;79.42;101765.78;5068649;28;10864;-64
2022/12/07 02:51:49;;;;;;;;;0.00;0.00;;;;;5.53;79.33;101762.41;5071741;28;10840;-61
2022/12/07 02:54:19;;;;;;;;;0.00;0.00;;;;;5.52;79.40;101763.41;5081443;28;10900;-66
2022/12/07 02:56:55;;;;;;;;;0.00;0.00;;;;;5.49;79.78;101764.50;5059019;28;10895;-63
2022/12/07 02:59:40;;;;;;;;;0.00;0.00;;;;;5.46;79.60;101765.63;5076943;28;11595;-64
2022/12/07 03:02:25;;;;;;;;;0.00;0.00;;;;;5.41;79.76;101765.19;5080180;28;11015;-64
2022/12/07 03:05:27;;;;;;;;;0.00;0.00;;;;;5.35;79.45;101772.94;5064216;28;10951;-64
2022/12/07 03:08:06;;;;;;;;;1.00;0.00;;;;;5.33;79.39;101772.22;5011707;28;11086;-66
2022/12/07 03:10:58;;;;;;;;;0.00;0.00;;;;;5.32;79.70;101789.22;5073870;28;11755;-65
2022/12/07 03:13:57;;;;;;;;;0.25;0.00;;;;;5.27;79.13;101786.13;5060506;28;11091;-65
2022/12/07 03:16:32;;;;;;;;;0.00;0.00;;;;;5.22;79.17;101791.84;5056590;28;11098;-65
2022/12/07 03:19:13;;;;;;;;;0.50;0.00;;;;;5.25;79.98;101788.91;5082654;22;11212;-67
2022/12/07 03:21:46;;;;;;;;;1.50;0.00;;;;;5.24;80.02;101789.91;5064679;28;11174;-67
2022/12/07 03:24:17;;;;;;;;;0.25;0.00;;;;;5.30;79.74;101784.00;5066216;28;11027;-67
2022/12/07 03:26:50;;;;;;;;;0.00;0.00;;;;;5.36;80.01;101785.28;5066919;28;11216;-67
2022/12/07 03:29:24;;;;;;;;;0.00;0.00;;;;;5.38;80.19;101769.97;5057516;28;11150;-67
2022/12/07 03:31:59;;;;;;;;;0.50;0.00;;;;;5.42;79.69;101777.56;5056631;28;10932;-67
2022/12/07 03:34:36;;;;;;;;;0.00;0.00;;;;;5.46;79.92;101767.44;5036835;28;10882;-67
2022/12/07 03:37:12;;;;;;;;;0.25;0.00;;;;;5.44;80.01;101772.09;5054231;28;11160;-67
2022/12/07 03:39:48;;;;;;;;;0.00;0.00;;;;;5.42;79.27;101758.03;5035119;28;11205;-67
2022/12/07 03:42:15;;;;;;;;;0.00;0.00;;;;;5.40;79.88;101758.19;5035546;28;11146;-67
2022/12/07 03:44:42;;;;;;;;;0.00;0.00;;;;;5.38;79.88;101759.28;5054214;28;10998;-67
2022/12/07 03:47:26;;;;;;;;;0.00;0.00;;;;;5.35;79.74;101754.25;5041437;28;11044;-67
2022/12/07 03:49:58;;;;;;;;;0.25;0.25;;;;;5.32;79.69;101751.84;5053555;28;11204;-67
2022/12/07 03:52:33;;;;;;;;;2.00;0.00;;;;;5.28;79.67;101753.09;5054361;28;11092;-67
2022/12/07 03:55:25;;;;;;;;;0.00;0.00;;;;;5.24;79.33;101755.19;5049132;28;11176;-67
2022/12/07 03:57:55;;;;;;;;;0.00;0.00;;;;;5.21;79.52;101768.81;5059543;28;11045;-67
2022/12/07 04:00:22;;;;;;;;;0.00;0.00;;;;;5.15;79.63;101772.88;5043117;28;11142;-67
2022/12/07 04:02:52;;;;;;;;;0.00;0.00;;;;;5.12;79.85;101775.81;5059478;28;11118;-67
2022/12/07 04:05:19;;;;;;;;;0.00;0.00;;;;;5.14;80.40;101765.81;5041952;28;11916;-67
2022/12/07 04:07:46;;;;;;;;;0.00;0.00;;;;;5.11;79.71;101757.28;5057936;28;11151;-67
2022/12/07 04:10:12;;;;;;;;;1.00;0.00;;;;;5.13;79.84;101758.81;5052368;28;11069;-67
2022/12/07 04:12:39;;;;;;;;;1.00;1.00;;;;;5.16;79.75;101757.69;5048211;28;10979;-67
2022/12/07 04:15:06;;;;;;;;;0.00;0.00;;;;;5.16;79.88;101745.19;5034998;28;11768;-68
2022/12/07 04:17:32;;;;;;;;;0.75;0.75;;;;;5.19;80.21;101747.59;5026532;28;11132;-67
2022/12/07 04:19:59;;;;;;;;;0.00;0.00;;;;;5.21;79.96;101742.13;5032535;28;11204;-67
2022/12/07 04:22:26;;;;;;;;;0.25;0.00;;;;;5.21;79.88;101742.97;5055357;28;10929;-67
2022/12/07 04:24:52;;;;;;;;;0.00;0.00;;;;;5.21;79.52;101742.13;5054762;28;11235;-68
2022/12/07 04:27:19;;;;;;;;;1.00;1.00;;;;;5.20;79.92;101751.94;5038896;28;11130;-67
2022/12/07 04:29:45;;;;;;;;;0.75;0.00;;;;;5.21;79.44;101752.78;5042189;28;11104;-67
2022/12/07 04:32:12;;;;;;;;;0.00;0.00;;;;;5.20;79.49;101749.28;5028896;28;10981;-67
2022/12/07 04:34:38;;;;;;;;;0.00;0.00;;;;;5.20;79.25;101751.13;5053211;28;11119;-67
2022/12/07 04:37:05;;;;;;;;;0.25;0.00;;;;;5.16;79.48;101747.88;5069562;28;11004;-67
2022/12/07 04:39:33;;;;;;;;;0.00;0.00;;;;;5.17;79.54;101756.72;5070765;28;11114;-66
2022/12/07 04:42:00;;;;;;;;;0.50;0.50;;;;;5.17;79.19;101748.72;5053797;28;11133;-66
2022/12/07 04:44:28;;;;;;;;;1.50;1.00;;;;;5.15;79.85;101740.84;5057684;28;11057;-67
2022/12/07 04:46:55;;;;;;;;;0.00;0.00;;;;;5.15;79.26;101743.53;5042287;28;11169;-67
2022/12/07 04:49:21;;;;;;;;;0.00;0.00;;;;;5.16;79.48;101739.03;5061639;28;11547;-67
2022/12/07 04:51:48;;;;;;;;;1.00;0.00;;;;;5.12;79.36;101743.78;5049729;28;11826;-67
2022/12/07 04:54:16;;;;;;;;;0.00;0.00;;;;;5.12;79.07;101741.13;5058796;28;11053;-67
2022/12/07 04:56:45;;;;;;;;;0.00;0.00;;;;;5.11;79.67;101735.94;5059031;28;11232;-66
2022/12/07 04:59:13;;;;;;;;;0.50;0.50;;;;;5.08;79.34;101736.19;5047094;28;11175;-66
2022/12/07 05:01:40;;;;;;;;;0.75;0.00;;;;;5.06;79.47;101740.81;5041552;28;11061;-66
2022/12/07 05:04:08;;;;;;;;;0.00;0.00;;;;;5.06;79.50;101727.47;5055903;28;11203;-67
2022/12/07 05:06:34;;;;;;;;;0.00;0.00;;;;;5.07;79.57;101738.03;5068025;28;11113;-67
2022/12/07 05:09:02;;;;;;;;;1.00;1.00;;;;;5.10;79.93;101737.72;5062419;28;11824;-67
2022/12/07 05:11:40;;;;;;;;;0.50;0.00;;;;;5.14;80.15;101727.63;5063527;28;11308;-65
2022/12/07 05:14:19;;;;;;;;;4.00;0.00;;;;;5.17;79.63;101720.19;5041151;28;10963;-67
2022/12/07 05:16:48;;;;;;;;;2.50;0.75;;;;;5.20;79.19;101727.09;5061915;28;10996;-67
2022/12/07 05:19:15;;;;;;;;;0.00;0.00;;;;;5.23;79.08;101728.66;5046855;28;11140;-67
2022/12/07 05:21:42;;;;;;;;;0.00;0.00;;;;;5.25;78.55;101730.19;5056482;28;11191;-66
2022/12/07 05:24:11;;;;;;;;;2.25;2.25;;;;;5.25;78.70;101735.53;5072038;28;11097;-65
2022/12/07 05:26:37;;;;;;;;;6.00;3.50;;;;;5.25;78.67;101737.34;5054346;28;11007;-65
2022/12/07 05:29:04;;;;;;;;;12.25;8.25;;;;;5.20;78.30;101741.28;5055468;28;12266;-66
2022/12/07 05:31:31;;;;;;;;;10.00;8.75;;;;;5.18;77.93;101731.69;5058768;28;11538;-66
2022/12/07 05:33:57;;;;;;;;;8.50;8.00;;;;;5.17;78.32;101735.38;5034090;28;11515;-64
2022/12/07 05:36:24;;;;;;;;;12.25;10.50;;;;;5.16;78.53;101733.69;5041973;28;11514;-66
2022/12/07 05:38:51;;;;;;;;;8.00;8.00;;;;;5.14;77.71;101725.78;5043387;28;11446;-66
2022/12/07 05:44:04;;;;;;;;;1.50;1.50;;;;;5.17;77.90;101725.53;5030941;28;11224;-65
2022/12/07 05:46:30;;;;;;;;;0.00;0.00;;;;;5.20;77.89;101722.59;5031197;28;11426;-65
2022/12/07 05:48:57;;;;;;;;;0.50;0.50;;;;;5.24;78.02;101722.31;5032784;28;11063;-66
2022/12/07 05:51:24;;;;;;;;;0.00;0.00;;;;;5.25;77.71;101721.34;5055416;28;11042;-65
2022/12/07 05:53:50;;;;;;;;;0.00;0.00;;;;;5.25;77.71;101724.84;5049574;28;11012;-65
2022/12/07 05:56:16;;;;;;;;;0.25;0.25;;;;;5.26;77.36;101731.88;5050470;28;10991;-66
2022/12/07 06:01:28;;;;;;;;;0.00;0.00;;;;;5.28;77.77;101724.56;5054090;28;11089;-66
2022/12/07 06:03:54;;;;;;;;;0.00;0.00;;;;;5.29;77.51;101714.75;5052054;28;11640;-68
2022/12/07 06:06:21;;;;;;;;;0.00;0.00;;;;;5.26;77.05;101710.50;5045630;28;10849;-66
2022/12/07 06:08:48;;;;;;;;;0.75;0.75;;;;;5.18;77.28;101718.34;5046473;28;10954;-66
2022/12/07 06:13:59;;;;;;;;;6.00;5.75;;;;;5.18;78.00;101729.88;5054235;28;11169;-67
2022/12/07 06:16:25;;;;;;;;;9.00;9.00;;;;;5.17;77.99;101733.53;5042446;28;11412;-66
2022/12/07 06:18:52;;;;;;;;;13.50;11.25;;;;;5.20;77.86;101733.28;5030071;28;11602;-66
2022/12/07 06:21:19;;;;;;;;;8.25;7.00;;;;;5.14;76.94;101746.31;5059601;28;11427;-65
2022/12/07 06:23:45;;;;;;;;;5.00;5.00;;;;;5.10;77.65;101750.22;5055755;28;11390;-67
2022/12/07 06:26:11;;;;;;;;;4.00;4.00;;;;;5.08;77.59;101736.19;5052703;28;11553;-66
2022/12/07 06:28:38;;;;;;;;;1.75;1.75;;;;;5.10;78.25;101735.06;5043300;28;12258;-67
2022/12/07 06:31:04;;;;;;;;;1.00;1.00;;;;;5.13;77.82;101721.44;5050310;28;11193;-66
2022/12/07 06:33:38;;;;;;;;;0.00;0.00;;;;;5.19;78.17;101717.41;5036657;28;11249;-66
2022/12/07 06:36:05;;;;;;;;;0.50;0.00;;;;;5.21;78.13;101704.75;5049620;28;11037;-65
2022/12/07 06:38:31;;;;;;;;;0.00;0.00;;;;;5.21;77.95;101713.59;5057222;28;11028;-66
2022/12/07 06:40:58;;;;;;;;;0.00;0.00;;;;;5.22;77.52;101714.44;5043731;28;10973;-68
2022/12/07 06:43:24;;;;;;;;;0.75;0.75;;;;;5.24;77.87;101715.16;5042194;28;11015;-66
2022/12/07 06:45:51;;;;;;;;;0.00;0.00;;;;;5.26;77.75;101723.84;5041741;28;11076;-67
2022/12/07 06:48:17;;;;;;;;;0.00;0.00;;;;;5.26;77.79;101729.19;5039814;28;11059;-66
2022/12/07 06:50:45;;;;;;;;;0.00;0.00;;;;;5.27;77.46;101724.72;5056617;28;10929;-67
2022/12/07 06:53:19;;;;;;;;;0.00;0.00;;;;;5.26;77.33;101731.88;5051796;28;11110;-66
2022/12/07 06:55:45;;;;;;;;;0.00;0.00;;;;;5.24;77.00;101730.34;5036972;28;10869;-66
2022/12/07 06:58:12;;;;;;;;;0.00;0.00;;;;;5.21;77.86;101728.78;5045668;28;10873;-67
2022/12/07 07:00:38;;;;;;;;;0.00;0.00;;;;;5.18;77.91;101729.03;5049326;28;10902;-66
2022/12/07 07:03:05;;;;;;;;;0.00;0.00;;;;;5.15;77.70;101729.34;5021726;28;10859;-66
2022/12/07 07:05:31;;;;;;;;;0.00;0.00;;;;;5.11;77.58;101720.75;5053218;28;11133;-67
2022/12/07 07:07:58;;;;;;;;;1.00;1.00;;;;;5.09;77.95;101721.84;5044110;28;10978;-67
2022/12/07 07:10:44;;;;;;;;;2.00;0.00;;;;;5.07;77.93;101729.19;5032173;28;11560;-67
2022/12/07 07:13:10;;;;;;;;;0.00;0.00;;;;;5.03;77.79;101722.44;5029933;28;10945;-67
2022/12/07 07:15:38;;;;;;;;;1.50;1.00;;;;;5.02;78.02;101728.72;5029565;28;10954;-67
2022/12/07 07:18:05;;;;;;;;;1.50;1.50;;;;;4.98;78.09;101728.13;5020172;28;11176;-67
2022/12/07 07:20:33;;;;;;;;;4.75;4.00;;;;;4.97;78.28;101734.47;5036607;28;12286;-67
2022/12/07 07:23:00;;;;;;;;;4.00;4.00;;;;;4.95;77.93;101731.09;5038430;28;11464;-67
2022/12/07 07:25:26;;;;;;;;;6.00;4.75;;;;;4.92;78.33;101729.53;5055009;28;12119;-66
2022/12/07 07:27:52;;;;;;;;;2.00;2.00;;;;;4.90;78.14;101734.19;5059889;28;11390;-66
2022/12/07 07:30:19;;;;;;;;;4.00;3.00;;;;;4.90;78.51;101736.84;5038671;28;11406;-66
2022/12/07 07:32:45;;;;;;;;;2.00;2.00;;;;;4.88;78.12;101735.28;5029018;28;11496;-66
2022/12/07 07:35:13;;;;;;;;;0.00;0.00;;;;;4.85;78.17;101738.22;5040861;28;11187;-67
2022/12/07 07:37:40;;;;;;;;;1.25;1.00;;;;;4.80;78.15;101761.78;5044801;28;10996;-66
2022/12/07 07:40:08;;;;;;;;;0.50;0.50;;;;;4.79;78.51;101765.44;5024058;28;11055;-66
2022/12/07 07:42:35;;;;;;;;;0.25;0.25;;;;;4.81;79.10;101766.97;5044884;28;11322;-66
2022/12/07 07:45:02;;;;;;;;;1.75;0.75;;;;;4.86;78.97;101770.13;5051423;28;13570;-66
2022/12/07 07:47:28;;;;;;;;;0.75;0.75;;;;;4.89;79.10;101769.81;5045176;28;11418;-68
2022/12/07 07:49:55;;;;;;;;;1.00;1.00;;;;;4.90;78.96;101746.66;5058096;28;11019;-67
2022/12/07 07:52:21;;;;;;;;;0.00;0.00;;;;;4.96;79.07;101749.63;5038475;28;11190;-67
2022/12/07 07:54:48;;;;;;;;;0.25;0.00;;;;;4.97;79.02;101745.97;5032567;28;11025;-66
2022/12/07 07:57:16;;;;;;;;;0.00;0.00;;;;;5.00;78.40;101744.03;5033678;28;11115;-66
2022/12/07 07:59:42;;;;;;;;;0.75;0.00;;;;;4.99;78.84;101745.88;5049119;28;11046;-66
2022/12/07 08:02:14;;;;;;;;;0.00;0.00;;;;;5.05;78.66;101749.78;5046197;28;11041;-66
2022/12/07 08:04:41;;;;;;;;;0.00;0.00;;;;;5.09;79.23;101746.72;5028749;28;10868;-65
2022/12/07 08:07:07;;;;;;;;;0.00;0.00;;;;;5.13;78.98;101757.97;5032510;28;11149;-66
2022/12/07 08:09:34;;;;;;;;;0.00;0.00;;;;;5.14;78.96;101757.81;5015118;28;10919;-67
2022/12/07 08:12:00;;;;;;;;;0.00;0.00;;;;;5.11;78.57;101759.94;5031944;28;11019;-67
2022/12/07 08:14:28;;;;;;;;;0.75;0.25;;;;;5.12;78.61;101769.63;5031864;28;10934;-67
2022/12/07 08:16:55;;;;;;;;;1.00;0.50;;;;;5.17;78.83;101770.06;5039173;28;11763;-67
2022/12/07 08:19:21;;;;;;;;;0.50;0.50;;;;;5.19;78.62;101781.47;5052173;28;11175;-68
2022/12/07 08:21:48;;;;;;;;;1.75;0.25;;;;;5.29;79.35;101768.97;5036906;28;10933;-66
2022/12/07 08:24:15;;;;;;;;;0.00;0.00;;;;;5.31;79.28;101768.84;5040143;28;11052;-66
2022/12/07 08:26:41;;;;;;;;;0.00;0.00;;;;;5.48;80.63;101749.47;5051991;28;10990;-66
2022/12/07 08:29:08;;;;;;;;;0.25;0.00;;;;;5.43;79.36;101760.56;5066438;28;10971;-67
2022/12/07 08:31:35;;;;;;;;;0.00;0.00;;;;;5.39;79.26;101764.50;5047501;28;10777;-67
2022/12/07 08:34:01;;;;;;;;;0.00;0.00;;;;;5.40;79.09;101760.84;5028336;28;10962;-66
2022/12/07 08:36:28;;;;;;;;;0.00;0.00;;;;;5.40;78.78;101757.34;5059833;28;10685;-67
2022/12/07 08:38:54;;;;;;;;;0.00;0.00;;;;;5.40;79.17;101752.84;5048376;28;10972;-66
2022/12/07 08:41:41;;;;;;;;;0.00;0.00;;;;;5.43;78.66;101762.41;5042268;28;10787;-65
2022/12/07 08:44:07;;;;;;;;;1.00;0.00;;;;;5.41;78.93;101754.53;5069699;28;10777;-67
2022/12/07 08:46:41;;;;;;;;;0.00;0.00;;;;;5.41;79.00;101761.69;5051861;28;10911;-67
2022/12/07 08:49:13;;;;;;;;;0.00;0.00;;;;;5.43;78.64;101767.75;5042159;28;10732;-66
2022/12/07 08:51:41;;;;;;;;;0.00;0.00;;;;;5.44;78.93;101754.25;5045660;28;10829;-66
2022/12/07 08:54:16;;;;;;;;;0.50;0.00;;;;;5.49;79.12;101751.16;5057454;28;10862;-66
2022/12/07 08:56:45;;;;;;;;;0.00;0.00;;;;;5.49;78.83;101751.16;5054527;28;10917;-66
2022/12/07 08:59:16;;;;;;;;;0.00;0.00;;;;;5.52;79.18;101755.38;5047719;28;10903;-64
2022/12/07 09:01:43;;;;;;;;;1.00;0.00;;;;;5.54;79.20;101742.72;5025662;28;10815;-67
2022/12/07 09:04:09;;;;;;;;;0.50;0.00;;;;;5.54;78.99;101746.25;5056845;28;11549;-66
2022/12/07 09:06:36;;;;;;;;;0.00;0.00;;;;;5.57;78.89;101745.97;5042788;28;11014;-67
2022/12/07 09:09:03;;;;;;;;;1.25;0.25;;;;;5.56;78.74;101746.97;5070916;28;10874;-69
2022/12/07 09:11:30;;;;;;;;;0.00;0.00;;;;;5.57;78.89;101747.78;5034188;28;10882;-69
2022/12/07 09:13:56;;;;;;;;;1.25;0.25;;;;;5.56;78.29;101744.28;5012823;28;10895;-67
2022/12/07 09:16:23;;;;;;;;;0.00;0.00;;;;;5.57;78.84;101737.94;5030933;28;11692;-67
2022/12/07 09:18:50;;;;;;;;;4.00;0.00;;;;;5.58;78.96;101749.47;5032428;28;11072;-67
2022/12/07 09:21:16;;;;;;;;;0.00;0.00;;;;;5.59;78.40;101745.81;5045436;28;11110;-66
2022/12/07 09:23:43;;;;;;;;;0.00;0.00;;;;;5.61;79.05;101746.53;5032729;28;10902;-67
2022/12/07 09:26:10;;;;;;;;;0.00;0.00;;;;;5.65;78.58;101746.09;5040850;28;10838;-67
2022/12/07 09:28:37;;;;;;;;;0.00;0.00;;;;;5.70;78.70;101738.50;5056766;28;10869;-67
2022/12/07 09:31:04;;;;;;;;;0.00;0.00;;;;;5.76;78.59;101742.47;5050298;28;11015;-67
2022/12/07 09:34:08;;;;;;;;;0.00;0.00;;;;;5.80;78.41;101743.03;5030962;28;10779;-67
2022/12/07 09:36:35;;;;;;;;;0.00;0.00;;;;;5.83;77.79;101743.56;5030054;28;10745;-67
2022/12/07 09:39:04;;;;;;;;;0.00;0.00;;;;;5.83;78.10;101740.91;5030381;28;10906;-67
2022/12/07 09:41:31;;;;;;;;;0.75;0.25;;;;;5.85;78.20;101738.94;5029808;28;11546;-67
2022/12/07 09:44:04;;;;;;;;;0.50;0.00;;;;;5.91;77.71;101742.88;5030025;28;10642;-66
2022/12/07 09:46:36;;;;;;;;;0.00;0.00;;;;;5.98;77.91;101743.19;5031724;28;10790;-66
2022/12/07 09:49:03;;;;;;;;;0.00;0.00;;;;;6.07;78.05;101747.66;5049212;28;10797;-66
2022/12/07 09:51:31;;;;;;;;;0.00;0.00;;;;;6.15;77.88;101737.94;5038186;28;10841;-66
2022/12/07 09:53:59;;;;;;;;;0.00;0.00;;;;;6.23;77.91;101747.09;5042596;28;10664;-66
2022/12/07 09:56:25;;;;;;;;;0.00;0.00;;;;;6.19;77.29;101736.66;5021784;28;11406;-66
2022/12/07 09:59:00;;;;;;;;;0.00;0.00;;;;;6.19;77.45;101738.50;5037243;28;10765;-66
2022/12/07 10:01:32;;;;;;;;;0.50;0.50;;;;;6.19;77.42;101735.84;5029393;28;11254;-66
2022/12/07 10:04:09;;;;;;;;;1.75;1.75;;;;;6.19;76.49;101738.50;5029924;28;10721;-66
2022/12/07 10:06:35;;;;;;;;;1.00;1.00;;;;;6.23;76.81;101739.06;5041013;28;10817;-66
2022/12/07 10:09:08;;;;;;;;;2.00;0.00;;;;;6.25;77.25;101737.94;5031592;28;10674;-66
2022/12/07 10:11:34;;;;;;;;;0.25;0.25;;;;;6.27;76.61;101743.13;5027342;28;10647;-66
2022/12/07 10:14:12;;;;;;;;;1.00;1.00;;;;;6.25;76.70;101731.75;5029464;28;10602;-66
2022/12/07 10:16:41;;;;;;;;;1.50;0.25;;;;;6.23;76.83;101731.88;5053914;28;10763;-66
2022/12/07 10:19:25;;;;;;;;;0.50;0.50;;;;;6.18;76.53;101734.16;5034749;28;10738;-66
2022/12/07 10:22:09;;;;;;;;;1.00;1.00;;;;;6.13;77.30;101723.91;5034722;28;10673;-67
2022/12/07 10:24:39;;;;;;;;;1.00;1.00;;;;;6.12;76.87;101724.06;5027290;28;10825;-65
2022/12/07 10:27:21;;;;;;;;;0.50;0.50;;;;;6.11;77.07;101725.84;5030482;28;12101;-65
2022/12/07 10:29:52;;;;;;;;;0.00;0.00;;;;;6.08;76.89;101715.47;5040894;28;10712;-66
2022/12/07 10:32:19;;;;;;;;;0.50;0.00;;;;;6.09;76.81;101718.97;5056560;28;10631;-66
2022/12/07 10:34:45;;;;;;;;;0.00;0.00;;;;;6.24;78.43;101714.00;5045975;28;11357;-67
2022/12/07 10:37:27;;;;;;;;;0.50;0.50;;;;;6.30;77.65;101710.78;5047572;28;10631;-66
2022/12/07 10:39:57;;;;;;;;;0.75;0.00;;;;;6.27;77.82;101709.22;5024325;28;10744;-66
2022/12/07 10:42:28;;;;;;;;;2.00;2.00;;;;;6.25;77.34;101713.03;5041924;28;10664;-66
2022/12/07 10:45:16;;;;;;;;;0.50;0.50;;;;;6.26;77.42;101706.69;5033658;28;10680;-66
2022/12/07 10:47:59;;;;;;;;;0.00;0.00;;;;;6.25;77.30;101699.69;5037368;28;10866;-66
2022/12/07 10:50:47;;;;;;;;;3.50;1.25;;;;;6.27;76.95;101703.88;5031761;28;10695;-66
2022/12/07 10:53:28;;;;;;;;;0.00;0.00;;;;;6.28;77.02;101700.22;5061103;28;10813;-66
2022/12/07 10:56:22;;;;;;;;;1.00;1.00;;;;;6.33;77.11;101703.31;5052333;28;10678;-66
2022/12/07 10:59:22;;;;;;;;;0.00;0.00;;;;;6.32;76.89;101696.28;5036387;28;10663;-66
2022/12/07 11:02:16;;;;;;;;;0.00;0.00;;;;;6.38;77.00;101682.31;5035425;28;10737;-66
2022/12/07 11:05:02;;;;;;;;;0.00;0.00;;;;;6.39;76.69;101686.66;5023236;28;10756;-66
2022/12/07 11:07:48;;;;;;;;;1.25;0.25;;;;;6.42;76.67;101686.38;5033645;28;10737;-66
2022/12/07 11:10:30;;;;;;;;;1.00;0.25;;;;;6.48;76.44;101678.75;5038037;28;10776;-66
2022/12/07 11:13:09;;;;;;;;;0.00;0.00;;;;;6.56;76.96;101676.19;5053524;28;10741;-66
2022/12/07 11:15:55;;;;;;;;;0.75;0.75;;;;;6.57;75.98;101678.72;5036603;28;10713;-66
2022/12/07 11:18:29;;;;;;;;;0.00;0.00;;;;;6.62;76.55;101678.28;5044990;28;10836;-66
2022/12/07 11:21:24;;;;;;;;;0.25;0.25;;;;;6.67;75.78;101667.97;5049576;28;10716;-66
2022/12/07 11:24:16;;;;;;;;;1.00;1.00;;;;;6.66;76.12;101658.25;5072912;28;10559;-66
2022/12/07 11:27:11;;;;;;;;;1.25;1.25;;;;;6.69;75.95;101661.50;5051322;28;10637;-66
2022/12/07 11:29:50;;;;;;;;;1.00;0.00;;;;;6.77;75.61;101657.22;5052545;28;10686;-66
2022/12/07 11:32:40;;;;;;;;;1.75;0.25;;;;;6.80;75.28;101651.56;5053059;28;10577;-66
2022/12/07 11:35:30;;;;;;;;;1.00;1.00;;;;;6.80;75.84;101649.72;5038395;28;10572;-66
2022/12/07 11:38:01;;;;;;;;;2.00;0.00;;;;;6.81;75.10;101637.22;5044049;28;11262;-67
2022/12/07 11:40:35;;;;;;;;;2.00;1.00;;;;;6.81;75.43;101637.22;5058980;28;10768;-66
2022/12/07 11:43:24;;;;;;;;;1.00;1.00;;;;;7.09;77.60;101635.31;5045026;28;11267;-66
2022/12/07 11:46:04;;;;;;;;;1.75;1.00;;;;;7.22;75.67;101637.63;5040722;28;10462;-66
2022/12/07 11:48:41;;;;;;;;;4.00;2.50;;;;;7.21;75.40;101631.44;5051008;28;10505;-66
2022/12/07 11:51:11;;;;;;;;;1.25;0.00;;;;;7.25;75.14;101623.91;5039056;28;10596;-66
2022/12/07 11:53:43;;;;;;;;;0.50;0.00;;;;;7.26;74.74;101639.00;5032009;28;10538;-66
2022/12/07 11:56:16;;;;;;;;;2.00;2.00;;;;;7.15;74.00;101643.59;5054680;28;10493;-66
2022/12/07 11:59:11;;;;;;;;;0.75;0.75;;;;;7.02;73.77;101653.00;5031710;28;10591;-66
2022/12/07 12:01:37;;;;;;;;;0.75;0.75;;;;;6.78;74.16;101633.00;5026688;28;10595;-67
2022/12/07 12:04:23;;;;;;;;;0.00;0.00;;;;;6.72;74.83;101633.56;5058927;28;10343;-67